Terminal Aerodrome Forecast
Issued by NWS

Home | Current Version | Previous Version | Text Only | Print | Product List | Glossary Off
Versions: 1 2 3 4 5 6 7 8 9 10 11 12 13 14 15 16 17 18 19 20 21 22 23 24 25 26 27 28 29 30

000
FTUS43 KBIS 272339
TAFDIK
TAF
KDIK 272339Z 2800/2824 06011KT P6SM OVC018
      TEMPO 2800/2802 SCT017 BKN025
     FM280200 08008KT P6SM OVC015
     FM280500 09007KT P6SM OVC005
     FM281600 12007KT P6SM OVC003
     FM281800 14008KT P6SM OVC015
     FM282100 15010KT P6SM BKN025=

USA.gov is the U.S. government's official web portal to all federal, state and local government web resources and services.